Terminal Aerodrome Forecast
Issued by NWS Mt. Holly, NJ

Current Version | Previous Version | Text Only | Print | Product List | Glossary On
Versions: 1 2 3 4 5 6 7 8 9 10 11 12 13 14 15 16 17 18 19 20 21 22 23
000
FTUS41 KPHI 062320
TAFRDG
TAF
KRDG 062320Z 0700/0724 14005KT P6SM BKN050
      TEMPO 0700/0702 2SM TSRA BKN050CB
     FM070500 14003KT 4SM BR SCT006 BKN150
     FM070700 16003KT 2SM BR BKN006
     FM071400 24004KT 5SM BR SCT006 BKN025
     FM071600 23004KT 6SM BR BKN035=

USA.gov is the U.S. government's official web portal to all federal, state and local government web resources and services.